sensor_id;sensor_type;location;lat;lon;timestamp;temperature;humidity
77052;SHT30;65980;44.898;8.602;2023-02-26T00:00:30;8.88;82.56
77052;SHT30;65980;44.898;8.602;2023-02-26T00:03:34;8.96;81.42
77052;SHT30;65980;44.898;8.602;2023-02-26T00:06:39;8.49;83.71
77052;SHT30;65980;44.898;8.602;2023-02-26T00:09:55;8.69;83.11
77052;SHT30;65980;44.898;8.602;2023-02-26T00:12:59;8.80;82.49
77052;SHT30;65980;44.898;8.602;2023-02-26T00:16:04;8.90;82.46
77052;SHT30;65980;44.898;8.602;2023-02-26T00:19:09;8.97;82.28
77052;SHT30;65980;44.898;8.602;2023-02-26T00:22:14;9.00;82.26
77052;SHT30;65980;44.898;8.602;2023-02-26T00:25:20;8.72;82.75
77052;SHT30;65980;44.898;8.602;2023-02-26T00:28:25;8.76;81.63
77052;SHT30;65980;44.898;8.602;2023-02-26T00:31:29;8.93;81.80
77052;SHT30;65980;44.898;8.602;2023-02-26T00:34:33;8.88;81.92
77052;SHT30;65980;44.898;8.602;2023-02-26T00:41:00;8.58;82.08
77052;SHT30;65980;44.898;8.602;2023-02-26T00:44:04;8.63;82.47
77052;SHT30;65980;44.898;8.602;2023-02-26T00:47:14;8.75;81.62
77052;SHT30;65980;44.898;8.602;2023-02-26T00:50:24;8.58;82.99
77052;SHT30;65980;44.898;8.602;2023-02-26T00:53:33;8.70;80.54
77052;SHT30;65980;44.898;8.602;2023-02-26T00:56:39;8.41;81.47
77052;SHT30;65980;44.898;8.602;2023-02-26T00:59:44;8.10;83.41
77052;SHT30;65980;44.898;8.602;2023-02-26T01:02:48;8.08;83.16
77052;SHT30;65980;44.898;8.602;2023-02-26T01:05:53;8.22;82.14
77052;SHT30;65980;44.898;8.602;2023-02-26T01:09:00;8.11;82.69
77052;SHT30;65980;44.898;8.602;2023-02-26T01:12:06;7.93;84.32
77052;SHT30;65980;44.898;8.602;2023-02-26T01:15:11;7.73;86.66
77052;SHT30;65980;44.898;8.602;2023-02-26T01:18:25;7.90;85.87
77052;SHT30;65980;44.898;8.602;2023-02-26T01:21:32;7.56;86.70
77052;SHT30;65980;44.898;8.602;2023-02-26T01:24:37;7.63;87.10
77052;SHT30;65980;44.898;8.602;2023-02-26T01:27:41;7.75;85.51
77052;SHT30;65980;44.898;8.602;2023-02-26T01:30:45;7.83;84.32
77052;SHT30;65980;44.898;8.602;2023-02-26T01:33:50;7.73;86.13
77052;SHT30;65980;44.898;8.602;2023-02-26T01:43:25;7.25;87.62
77052;SHT30;65980;44.898;8.602;2023-02-26T01:46:43;7.03;88.91
77052;SHT30;65980;44.898;8.602;2023-02-26T01:49:49;6.87;88.70
77052;SHT30;65980;44.898;8.602;2023-02-26T01:56:14;6.86;89.30
77052;SHT30;65980;44.898;8.602;2023-02-26T01:59:21;6.83;88.95
77052;SHT30;65980;44.898;8.602;2023-02-26T02:02:27;6.79;89.28
77052;SHT30;65980;44.898;8.602;2023-02-26T02:05:33;6.73;89.20
77052;SHT30;65980;44.898;8.602;2023-02-26T02:08:38;6.72;89.24
77052;SHT30;65980;44.898;8.602;2023-02-26T02:11:47;6.58;89.74
77052;SHT30;65980;44.898;8.602;2023-02-26T02:18:04;6.37;90.01
77052;SHT30;65980;44.898;8.602;2023-02-26T02:24:29;6.04;90.21
77052;SHT30;65980;44.898;8.602;2023-02-26T02:34:20;5.63;90.37
77052;SHT30;65980;44.898;8.602;2023-02-26T02:37:37;5.60;89.92
77052;SHT30;65980;44.898;8.602;2023-02-26T02:40:45;5.54;90.03
77052;SHT30;65980;44.898;8.602;2023-02-26T02:43:51;5.35;89.84
77052;SHT30;65980;44.898;8.602;2023-02-26T02:46:56;5.37;90.17
77052;SHT30;65980;44.898;8.602;2023-02-26T02:50:13;5.34;89.92
77052;SHT30;65980;44.898;8.602;2023-02-26T02:53:20;5.41;90.00
77052;SHT30;65980;44.898;8.602;2023-02-26T02:56:28;5.24;89.41
77052;SHT30;65980;44.898;8.602;2023-02-26T02:59:38;5.31;88.95
77052;SHT30;65980;44.898;8.602;2023-02-26T03:02:48;5.52;89.17
77052;SHT30;65980;44.898;8.602;2023-02-26T03:05:52;5.51;88.32
77052;SHT30;65980;44.898;8.602;2023-02-26T03:08:59;5.28;89.03
77052;SHT30;65980;44.898;8.602;2023-02-26T03:12:03;5.38;88.97
77052;SHT30;65980;44.898;8.602;2023-02-26T03:15:08;5.54;88.12
77052;SHT30;65980;44.898;8.602;2023-02-26T03:18:17;5.16;88.48
77052;SHT30;65980;44.898;8.602;2023-02-26T03:25:16;4.97;89.98
77052;SHT30;65980;44.898;8.602;2023-02-26T03:34:49;4.93;90.66
77052;SHT30;65980;44.898;8.602;2023-02-26T03:37:58;5.00;90.57
77052;SHT30;65980;44.898;8.602;2023-02-26T03:41:05;5.03;90.57
77052;SHT30;65980;44.898;8.602;2023-02-26T03:44:18;5.03;91.06
77052;SHT30;65980;44.898;8.602;2023-02-26T03:47:28;4.93;91.22
77052;SHT30;65980;44.898;8.602;2023-02-26T03:50:38;5.00;91.08
77052;SHT30;65980;44.898;8.602;2023-02-26T03:54:21;5.03;90.72
77052;SHT30;65980;44.898;8.602;2023-02-26T03:57:41;4.97;90.98
77052;SHT30;65980;44.898;8.602;2023-02-26T04:01:07;4.96;90.93
77052;SHT30;65980;44.898;8.602;2023-02-26T04:04:16;4.92;91.18
77052;SHT30;65980;44.898;8.602;2023-02-26T04:07:22;4.87;90.83
77052;SHT30;65980;44.898;8.602;2023-02-26T04:13:54;4.82;90.70
77052;SHT30;65980;44.898;8.602;2023-02-26T04:16:58;4.83;90.20
77052;SHT30;65980;44.898;8.602;2023-02-26T04:20:04;4.83;90.33
77052;SHT30;65980;44.898;8.602;2023-02-26T04:23:11;4.82;90.42
77052;SHT30;65980;44.898;8.602;2023-02-26T04:26:16;4.90;90.00
77052;SHT30;65980;44.898;8.602;2023-02-26T04:29:22;4.85;90.57
77052;SHT30;65980;44.898;8.602;2023-02-26T04:32:26;4.87;90.51
77052;SHT30;65980;44.898;8.602;2023-02-26T04:35:30;4.97;89.93
77052;SHT30;65980;44.898;8.602;2023-02-26T04:38:35;4.93;90.51
77052;SHT30;65980;44.898;8.602;2023-02-26T04:41:40;4.92;90.33
77052;SHT30;65980;44.898;8.602;2023-02-26T04:44:45;4.92;90.49
77052;SHT30;65980;44.898;8.602;2023-02-26T04:47:50;4.95;90.21
77052;SHT30;65980;44.898;8.602;2023-02-26T04:50:54;4.79;89.95
77052;SHT30;65980;44.898;8.602;2023-02-26T04:53:59;4.80;90.13
77052;SHT30;65980;44.898;8.602;2023-02-26T04:57:03;4.68;90.59
77052;SHT30;65980;44.898;8.602;2023-02-26T05:00:07;4.68;90.25
77052;SHT30;65980;44.898;8.602;2023-02-26T05:03:14;4.68;90.78
77052;SHT30;65980;44.898;8.602;2023-02-26T05:06:18;4.65;90.65
77052;SHT30;65980;44.898;8.602;2023-02-26T05:09:23;4.64;90.71
77052;SHT30;65980;44.898;8.602;2023-02-26T05:12:29;4.45;90.71
77052;SHT30;65980;44.898;8.602;2023-02-26T05:15:34;4.44;91.06
77052;SHT30;65980;44.898;8.602;2023-02-26T05:18:39;4.45;90.89
77052;SHT30;65980;44.898;8.602;2023-02-26T05:21:43;4.45;91.05
77052;SHT30;65980;44.898;8.602;2023-02-26T05:24:47;4.61;90.20
77052;SHT30;65980;44.898;8.602;2023-02-26T05:27:52;4.64;90.33
77052;SHT30;65980;44.898;8.602;2023-02-26T05:30:56;4.69;89.65
77052;SHT30;65980;44.898;8.602;2023-02-26T05:34:01;4.85;89.42
77052;SHT30;65980;44.898;8.602;2023-02-26T05:37:04;4.83;88.89
77052;SHT30;65980;44.898;8.602;2023-02-26T05:40:09;4.76;89.09
77052;SHT30;65980;44.898;8.602;2023-02-26T05:43:13;4.76;89.11
77052;SHT30;65980;44.898;8.602;2023-02-26T05:46:18;4.71;89.90
77052;SHT30;65980;44.898;8.602;2023-02-26T05:49:23;4.83;89.88
77052;SHT30;65980;44.898;8.602;2023-02-26T05:52:27;4.82;89.71
77052;SHT30;65980;44.898;8.602;2023-02-26T05:55:30;4.69;90.42
77052;SHT30;65980;44.898;8.602;2023-02-26T05:58:35;4.62;90.90
77052;SHT30;65980;44.898;8.602;2023-02-26T06:01:40;4.57;90.39
77052;SHT30;65980;44.898;8.602;2023-02-26T06:04:45;4.57;90.48
77052;SHT30;65980;44.898;8.602;2023-02-26T06:07:49;4.45;90.52
77052;SHT30;65980;44.898;8.602;2023-02-26T06:10:53;4.40;90.91
77052;SHT30;65980;44.898;8.602;2023-02-26T06:13:57;4.47;90.51
77052;SHT30;65980;44.898;8.602;2023-02-26T06:17:02;4.47;91.23
77052;SHT30;65980;44.898;8.602;2023-02-26T06:20:07;4.69;90.53
77052;SHT30;65980;44.898;8.602;2023-02-26T06:23:11;4.92;89.54
77052;SHT30;65980;44.898;8.602;2023-02-26T06:26:18;4.95;88.61
77052;SHT30;65980;44.898;8.602;2023-02-26T06:29:21;4.89;88.37
77052;SHT30;65980;44.898;8.602;2023-02-26T06:32:26;4.95;87.64
77052;SHT30;65980;44.898;8.602;2023-02-26T06:35:30;5.27;86.36
77052;SHT30;65980;44.898;8.602;2023-02-26T06:38:35;5.62;85.57
77052;SHT30;65980;44.898;8.602;2023-02-26T06:41:39;5.51;85.84
77052;SHT30;65980;44.898;8.602;2023-02-26T06:44:43;5.75;84.88
77052;SHT30;65980;44.898;8.602;2023-02-26T06:47:47;5.69;85.55
77052;SHT30;65980;44.898;8.602;2023-02-26T06:50:53;6.10;83.79
77052;SHT30;65980;44.898;8.602;2023-02-26T06:53:57;6.14;84.21
77052;SHT30;65980;44.898;8.602;2023-02-26T06:57:01;6.35;85.35
77052;SHT30;65980;44.898;8.602;2023-02-26T07:00:06;6.55;86.04
77052;SHT30;65980;44.898;8.602;2023-02-26T07:03:11;6.62;86.16
77052;SHT30;65980;44.898;8.602;2023-02-26T07:06:18;6.85;85.09
77052;SHT30;65980;44.898;8.602;2023-02-26T07:09:23;6.93;84.76
77052;SHT30;65980;44.898;8.602;2023-02-26T07:12:28;7.17;83.96
77052;SHT30;65980;44.898;8.602;2023-02-26T07:15:31;7.08;83.32
77052;SHT30;65980;44.898;8.602;2023-02-26T07:18:36;7.11;82.72
77052;SHT30;65980;44.898;8.602;2023-02-26T07:21:39;7.04;82.56
77052;SHT30;65980;44.898;8.602;2023-02-26T07:24:44;7.17;82.13
77052;SHT30;65980;44.898;8.602;2023-02-26T07:27:47;7.24;80.65
77052;SHT30;65980;44.898;8.602;2023-02-26T07:30:55;7.27;80.49
77052;SHT30;65980;44.898;8.602;2023-02-26T07:33:59;7.39;79.68
77052;SHT30;65980;44.898;8.602;2023-02-26T07:37:03;7.59;77.74
77052;SHT30;65980;44.898;8.602;2023-02-26T07:40:08;7.52;77.16
77052;SHT30;65980;44.898;8.602;2023-02-26T07:43:13;7.56;77.16
77052;SHT30;65980;44.898;8.602;2023-02-26T07:46:18;7.59;76.35
77052;SHT30;65980;44.898;8.602;2023-02-26T07:49:21;7.54;76.23
77052;SHT30;65980;44.898;8.602;2023-02-26T07:52:26;7.59;74.79
77052;SHT30;65980;44.898;8.602;2023-02-26T07:55:29;7.72;74.80
77052;SHT30;65980;44.898;8.602;2023-02-26T07:58:34;7.56;74.15
77052;SHT30;65980;44.898;8.602;2023-02-26T08:01:38;7.75;73.06
77052;SHT30;65980;44.898;8.602;2023-02-26T08:04:42;7.77;72.18
77052;SHT30;65980;44.898;8.602;2023-02-26T08:07:48;7.83;70.93
77052;SHT30;65980;44.898;8.602;2023-02-26T08:10:53;7.94;70.37
77052;SHT30;65980;44.898;8.602;2023-02-26T08:13:57;7.87;69.48
77052;SHT30;65980;44.898;8.602;2023-02-26T08:17:02;7.72;68.93
77052;SHT30;65980;44.898;8.602;2023-02-26T08:20:06;7.91;67.49
77052;SHT30;65980;44.898;8.602;2023-02-26T08:23:10;8.69;66.10
77052;SHT30;65980;44.898;8.602;2023-02-26T08:26:19;8.67;65.24
77052;SHT30;65980;44.898;8.602;2023-02-26T08:29:22;8.67;63.84
77052;SHT30;65980;44.898;8.602;2023-02-26T08:32:41;8.20;65.07
77052;SHT30;65980;44.898;8.602;2023-02-26T08:35:46;8.24;65.80
77052;SHT30;65980;44.898;8.602;2023-02-26T08:38:51;8.01;65.59
77052;SHT30;65980;44.898;8.602;2023-02-26T08:41:58;7.97;65.27
77052;SHT30;65980;44.898;8.602;2023-02-26T08:45:03;8.08;64.56
77052;SHT30;65980;44.898;8.602;2023-02-26T08:48:08;7.91;64.07
77052;SHT30;65980;44.898;8.602;2023-02-26T08:51:14;7.89;64.03
77052;SHT30;65980;44.898;8.602;2023-02-26T08:54:18;8.32;62.89
77052;SHT30;65980;44.898;8.602;2023-02-26T08:57:22;8.41;62.69
77052;SHT30;65980;44.898;8.602;2023-02-26T09:00:26;8.37;63.11
77052;SHT30;65980;44.898;8.602;2023-02-26T09:03:29;8.45;61.52
77052;SHT30;65980;44.898;8.602;2023-02-26T09:06:34;8.05;61.75
77052;SHT30;65980;44.898;8.602;2023-02-26T09:09:40;8.10;62.28
77052;SHT30;65980;44.898;8.602;2023-02-26T09:12:45;8.04;61.89
77052;SHT30;65980;44.898;8.602;2023-02-26T09:15:50;8.17;60.72
77052;SHT30;65980;44.898;8.602;2023-02-26T09:18:55;8.27;60.50
77052;SHT30;65980;44.898;8.602;2023-02-26T09:21:59;8.01;60.30
77052;SHT30;65980;44.898;8.602;2023-02-26T09:25:04;7.98;60.41
77052;SHT30;65980;44.898;8.602;2023-02-26T09:28:10;8.07;60.60
77052;SHT30;65980;44.898;8.602;2023-02-26T09:31:16;8.01;59.86
77052;SHT30;65980;44.898;8.602;2023-02-26T09:34:21;7.82;60.35
77052;SHT30;65980;44.898;8.602;2023-02-26T09:37:26;7.89;60.06
77052;SHT30;65980;44.898;8.602;2023-02-26T09:44:04;7.83;59.34
77052;SHT30;65980;44.898;8.602;2023-02-26T09:50:19;7.87;58.90
77052;SHT30;65980;44.898;8.602;2023-02-26T09:53:25;7.97;58.94
77052;SHT30;65980;44.898;8.602;2023-02-26T09:56:32;7.89;57.55
77052;SHT30;65980;44.898;8.602;2023-02-26T09:59:41;7.79;57.54
77052;SHT30;65980;44.898;8.602;2023-02-26T10:03:08;8.00;57.47
77052;SHT30;65980;44.898;8.602;2023-02-26T10:06:12;7.93;56.82
77052;SHT30;65980;44.898;8.602;2023-02-26T10:12:28;8.07;56.68
77052;SHT30;65980;44.898;8.602;2023-02-26T10:15:38;7.68;59.23
77052;SHT30;65980;44.898;8.602;2023-02-26T10:18:56;7.62;59.71
77052;SHT30;65980;44.898;8.602;2023-02-26T10:25:46;7.47;59.69
77052;SHT30;65980;44.898;8.602;2023-02-26T10:29:09;7.28;60.77
77052;SHT30;65980;44.898;8.602;2023-02-26T10:35:25;7.24;60.80
77052;SHT30;65980;44.898;8.602;2023-02-26T10:38:30;7.25;60.50
77052;SHT30;65980;44.898;8.602;2023-02-26T10:41:38;7.30;60.40
77052;SHT30;65980;44.898;8.602;2023-02-26T10:50:59;7.25;59.99
77052;SHT30;65980;44.898;8.602;2023-02-26T10:54:14;7.20;59.90
77052;SHT30;65980;44.898;8.602;2023-02-26T10:57:26;7.30;60.76
77052;SHT30;65980;44.898;8.602;2023-02-26T11:00:31;7.27;60.83
77052;SHT30;65980;44.898;8.602;2023-02-26T11:03:39;7.18;61.44
77052;SHT30;65980;44.898;8.602;2023-02-26T11:06:52;7.20;61.94
77052;SHT30;65980;44.898;8.602;2023-02-26T11:09:58;7.20;61.83
77052;SHT30;65980;44.898;8.602;2023-02-26T11:13:02;7.20;62.47
77052;SHT30;65980;44.898;8.602;2023-02-26T11:16:12;7.13;62.35
77052;SHT30;65980;44.898;8.602;2023-02-26T11:19:17;7.08;62.74
77052;SHT30;65980;44.898;8.602;2023-02-26T11:22:24;6.99;62.28
77052;SHT30;65980;44.898;8.602;2023-02-26T11:25:29;7.01;62.87
77052;SHT30;65980;44.898;8.602;2023-02-26T11:28:37;7.20;61.69
77052;SHT30;65980;44.898;8.602;2023-02-26T11:31:54;7.04;61.22
77052;SHT30;65980;44.898;8.602;2023-02-26T11:35:01;6.92;61.72
77052;SHT30;65980;44.898;8.602;2023-02-26T11:38:05;7.01;61.83
77052;SHT30;65980;44.898;8.602;2023-02-26T11:41:24;6.90;61.75
77052;SHT30;65980;44.898;8.602;2023-02-26T11:47:38;6.87;61.48
77052;SHT30;65980;44.898;8.602;2023-02-26T11:50:45;6.93;61.35
77052;SHT30;65980;44.898;8.602;2023-02-26T11:53:51;6.97;60.35
77052;SHT30;65980;44.898;8.602;2023-02-26T11:57:00;7.15;59.80
77052;SHT30;65980;44.898;8.602;2023-02-26T12:00:11;6.94;58.75
77052;SHT30;65980;44.898;8.602;2023-02-26T12:03:24;7.00;59.88
77052;SHT30;65980;44.898;8.602;2023-02-26T12:06:29;6.99;59.94
77052;SHT30;65980;44.898;8.602;2023-02-26T12:09:34;6.97;60.54
77052;SHT30;65980;44.898;8.602;2023-02-26T12:32:34;6.20;63.48
77052;SHT30;65980;44.898;8.602;2023-02-26T12:39:23;6.20;64.08
77052;SHT30;65980;44.898;8.602;2023-02-26T12:42:37;6.30;63.05
77052;SHT30;65980;44.898;8.602;2023-02-26T12:45:53;6.18;63.09
77052;SHT30;65980;44.898;8.602;2023-02-26T12:55:35;6.38;62.64
77052;SHT30;65980;44.898;8.602;2023-02-26T12:58:46;6.56;61.62
77052;SHT30;65980;44.898;8.602;2023-02-26T13:08:27;6.34;64.31
77052;SHT30;65980;44.898;8.602;2023-02-26T13:14:50;6.20;64.83
77052;SHT30;65980;44.898;8.602;2023-02-26T13:18:08;6.31;63.99
77052;SHT30;65980;44.898;8.602;2023-02-26T13:21:34;6.30;64.91
77052;SHT30;65980;44.898;8.602;2023-02-26T13:24:41;6.18;66.23
77052;SHT30;65980;44.898;8.602;2023-02-26T13:27:47;6.10;66.65
77052;SHT30;65980;44.898;8.602;2023-02-26T13:30:54;5.87;66.89
77052;SHT30;65980;44.898;8.602;2023-02-26T13:34:01;5.94;67.16
77052;SHT30;65980;44.898;8.602;2023-02-26T13:37:26;5.89;67.08
77052;SHT30;65980;44.898;8.602;2023-02-26T13:40:53;5.80;67.29
77052;SHT30;65980;44.898;8.602;2023-02-26T13:47:20;5.76;67.66
77052;SHT30;65980;44.898;8.602;2023-02-26T13:53:46;6.11;67.65
77052;SHT30;65980;44.898;8.602;2023-02-26T13:57:05;6.06;67.85
77052;SHT30;65980;44.898;8.602;2023-02-26T14:00:21;5.82;68.73
77052;SHT30;65980;44.898;8.602;2023-02-26T14:06:38;5.87;69.09
77052;SHT30;65980;44.898;8.602;2023-02-26T14:09:43;5.86;69.28
77052;SHT30;65980;44.898;8.602;2023-02-26T14:13:01;5.85;68.82
77052;SHT30;65980;44.898;8.602;2023-02-26T14:16:11;5.82;69.34
77052;SHT30;65980;44.898;8.602;2023-02-26T14:19:20;5.66;68.97
77052;SHT30;65980;44.898;8.602;2023-02-26T14:25:32;5.82;69.27
77052;SHT30;65980;44.898;8.602;2023-02-26T14:28:42;5.54;69.07
77052;SHT30;65980;44.898;8.602;2023-02-26T14:31:53;5.72;69.42
77052;SHT30;65980;44.898;8.602;2023-02-26T14:35:04;5.59;69.60
77052;SHT30;65980;44.898;8.602;2023-02-26T14:38:29;5.75;69.51
77052;SHT30;65980;44.898;8.602;2023-02-26T14:41:37;5.52;69.21
77052;SHT30;65980;44.898;8.602;2023-02-26T14:44:47;5.66;68.54
77052;SHT30;65980;44.898;8.602;2023-02-26T14:47:52;5.58;69.17
77052;SHT30;65980;44.898;8.602;2023-02-26T14:51:04;5.55;70.03
77052;SHT30;65980;44.898;8.602;2023-02-26T15:14:02;5.63;69.75
77052;SHT30;65980;44.898;8.602;2023-02-26T15:23:33;5.32;71.82
77052;SHT30;65980;44.898;8.602;2023-02-26T15:26:53;5.13;72.45
77052;SHT30;65980;44.898;8.602;2023-02-26T15:29:58;5.07;73.53
77052;SHT30;65980;44.898;8.602;2023-02-26T15:33:04;5.07;73.45
77052;SHT30;65980;44.898;8.602;2023-02-26T15:36:13;4.93;74.85
77052;SHT30;65980;44.898;8.602;2023-02-26T15:39:21;4.86;75.97
77052;SHT30;65980;44.898;8.602;2023-02-26T15:42:28;4.72;76.93
77052;SHT30;65980;44.898;8.602;2023-02-26T15:45:37;4.86;77.54
77052;SHT30;65980;44.898;8.602;2023-02-26T15:48:41;4.68;78.27
77052;SHT30;65980;44.898;8.602;2023-02-26T15:51:45;4.59;79.42
77052;SHT30;65980;44.898;8.602;2023-02-26T15:54:54;4.51;80.08
77052;SHT30;65980;44.898;8.602;2023-02-26T15:57:59;4.38;79.96
77052;SHT30;65980;44.898;8.602;2023-02-26T16:01:03;4.33;81.04
77052;SHT30;65980;44.898;8.602;2023-02-26T16:04:12;4.41;81.32
77052;SHT30;65980;44.898;8.602;2023-02-26T16:07:16;4.20;81.45
77052;SHT30;65980;44.898;8.602;2023-02-26T16:13:32;4.38;81.23
77052;SHT30;65980;44.898;8.602;2023-02-26T16:16:41;4.17;81.10
77052;SHT30;65980;44.898;8.602;2023-02-26T16:19:48;4.36;81.10
77052;SHT30;65980;44.898;8.602;2023-02-26T16:23:01;4.44;79.96
77052;SHT30;65980;44.898;8.602;2023-02-26T16:26:07;4.51;80.91
77052;SHT30;65980;44.898;8.602;2023-02-26T16:29:16;4.29;80.36
77052;SHT30;65980;44.898;8.602;2023-02-26T16:32:21;4.44;80.53
77052;SHT30;65980;44.898;8.602;2023-02-26T16:35:27;4.31;80.34
77052;SHT30;65980;44.898;8.602;2023-02-26T16:38:47;4.47;80.54
77052;SHT30;65980;44.898;8.602;2023-02-26T16:42:06;4.25;81.45
77052;SHT30;65980;44.898;8.602;2023-02-26T16:48:35;4.21;81.80
77052;SHT30;65980;44.898;8.602;2023-02-26T16:51:43;4.31;81.37
77052;SHT30;65980;44.898;8.602;2023-02-26T16:54:52;4.25;80.99
77052;SHT30;65980;44.898;8.602;2023-02-26T16:57:58;4.13;81.51
77052;SHT30;65980;44.898;8.602;2023-02-26T17:01:07;4.23;80.90
77052;SHT30;65980;44.898;8.602;2023-02-26T17:04:13;4.17;81.71
77052;SHT30;65980;44.898;8.602;2023-02-26T17:07:25;4.25;81.79
77052;SHT30;65980;44.898;8.602;2023-02-26T17:10:36;4.23;82.07
77052;SHT30;65980;44.898;8.602;2023-02-26T17:13:42;4.27;82.18
77052;SHT30;65980;44.898;8.602;2023-02-26T17:16:46;4.36;80.91
77052;SHT30;65980;44.898;8.602;2023-02-26T17:19:51;4.25;81.66
77052;SHT30;65980;44.898;8.602;2023-02-26T17:22:56;4.20;81.09
77052;SHT30;65980;44.898;8.602;2023-02-26T17:26:01;4.20;81.31
77052;SHT30;65980;44.898;8.602;2023-02-26T17:29:08;4.14;81.33
77052;SHT30;65980;44.898;8.602;2023-02-26T17:32:20;4.17;80.71
77052;SHT30;65980;44.898;8.602;2023-02-26T17:35:25;4.13;81.08
77052;SHT30;65980;44.898;8.602;2023-02-26T17:38:29;4.13;80.69
77052;SHT30;65980;44.898;8.602;2023-02-26T17:41:35;4.13;79.90
77052;SHT30;65980;44.898;8.602;2023-02-26T17:44:39;4.27;80.35
77052;SHT30;65980;44.898;8.602;2023-02-26T17:47:43;4.16;80.46
77052;SHT30;65980;44.898;8.602;2023-02-26T17:50:58;4.24;80.02
77052;SHT30;65980;44.898;8.602;2023-02-26T17:54:02;4.13;80.05
77052;SHT30;65980;44.898;8.602;2023-02-26T17:57:08;4.07;80.65
77052;SHT30;65980;44.898;8.602;2023-02-26T18:00:15;4.23;79.81
77052;SHT30;65980;44.898;8.602;2023-02-26T18:03:20;4.10;79.81
77052;SHT30;65980;44.898;8.602;2023-02-26T18:06:23;4.06;80.08
77052;SHT30;65980;44.898;8.602;2023-02-26T18:09:28;4.09;80.35
77052;SHT30;65980;44.898;8.602;2023-02-26T18:12:33;4.06;80.54
77052;SHT30;65980;44.898;8.602;2023-02-26T18:15:39;4.06;80.30
77052;SHT30;65980;44.898;8.602;2023-02-26T18:18:44;3.87;80.56
77052;SHT30;65980;44.898;8.602;2023-02-26T18:21:47;3.86;80.81
77052;SHT30;65980;44.898;8.602;2023-02-26T18:24:53;3.97;80.55
77052;SHT30;65980;44.898;8.602;2023-02-26T18:27:58;3.92;81.09
77052;SHT30;65980;44.898;8.602;2023-02-26T18:31:03;3.83;80.89
77052;SHT30;65980;44.898;8.602;2023-02-26T18:34:12;3.81;80.60
77052;SHT30;65980;44.898;8.602;2023-02-26T18:37:19;3.75;81.23
77052;SHT30;65980;44.898;8.602;2023-02-26T18:40:25;3.75;81.01
77052;SHT30;65980;44.898;8.602;2023-02-26T18:43:29;3.74;80.92
77052;SHT30;65980;44.898;8.602;2023-02-26T18:46:33;3.87;80.98
77052;SHT30;65980;44.898;8.602;2023-02-26T18:49:41;3.71;81.10
77052;SHT30;65980;44.898;8.602;2023-02-26T18:52:47;3.69;81.03
77052;SHT30;65980;44.898;8.602;2023-02-26T18:55:52;3.62;81.37
77052;SHT30;65980;44.898;8.602;2023-02-26T18:58:56;3.68;81.00
77052;SHT30;65980;44.898;8.602;2023-02-26T19:02:02;3.85;80.25
77052;SHT30;65980;44.898;8.602;2023-02-26T19:05:08;3.78;80.83
77052;SHT30;65980;44.898;8.602;2023-02-26T19:08:13;3.68;80.57
77052;SHT30;65980;44.898;8.602;2023-02-26T19:11:18;3.67;80.42
77052;SHT30;65980;44.898;8.602;2023-02-26T19:14:22;3.83;80.62
77052;SHT30;65980;44.898;8.602;2023-02-26T19:17:27;3.76;80.90
77052;SHT30;65980;44.898;8.602;2023-02-26T19:20:32;3.79;80.45
77052;SHT30;65980;44.898;8.602;2023-02-26T19:23:36;3.69;80.70
77052;SHT30;65980;44.898;8.602;2023-02-26T19:26:40;3.95;80.06
77052;SHT30;65980;44.898;8.602;2023-02-26T19:29:44;3.79;80.23
77052;SHT30;65980;44.898;8.602;2023-02-26T19:32:49;3.83;80.30
77052;SHT30;65980;44.898;8.602;2023-02-26T19:35:53;3.82;80.23
77052;SHT30;65980;44.898;8.602;2023-02-26T19:39:02;3.72;80.70
77052;SHT30;65980;44.898;8.602;2023-02-26T19:42:06;3.82;80.17
77052;SHT30;65980;44.898;8.602;2023-02-26T19:45:11;3.79;80.04
77052;SHT30;65980;44.898;8.602;2023-02-26T19:48:17;3.83;79.78
77052;SHT30;65980;44.898;8.602;2023-02-26T19:51:20;3.90;79.43
77052;SHT30;65980;44.898;8.602;2023-02-26T19:54:24;3.82;79.80
77052;SHT30;65980;44.898;8.602;2023-02-26T19:57:29;3.81;80.61
77052;SHT30;65980;44.898;8.602;2023-02-26T20:00:33;3.90;79.77
77052;SHT30;65980;44.898;8.602;2023-02-26T20:03:37;4.03;79.47
77052;SHT30;65980;44.898;8.602;2023-02-26T20:06:42;3.99;79.68
77052;SHT30;65980;44.898;8.602;2023-02-26T20:09:46;3.89;79.99
77052;SHT30;65980;44.898;8.602;2023-02-26T20:12:51;3.97;79.57
77052;SHT30;65980;44.898;8.602;2023-02-26T20:15:57;3.99;79.50
77052;SHT30;65980;44.898;8.602;2023-02-26T20:19:01;3.93;79.64
77052;SHT30;65980;44.898;8.602;2023-02-26T20:22:05;4.13;79.20
77052;SHT30;65980;44.898;8.602;2023-02-26T20:25:09;4.09;79.20
77052;SHT30;65980;44.898;8.602;2023-02-26T20:28:13;4.00;79.53
77052;SHT30;65980;44.898;8.602;2023-02-26T20:31:17;4.04;79.05
77052;SHT30;65980;44.898;8.602;2023-02-26T20:34:21;4.09;78.87
77052;SHT30;65980;44.898;8.602;2023-02-26T20:37:25;4.03;78.45
77052;SHT30;65980;44.898;8.602;2023-02-26T20:40:29;4.11;78.19
77052;SHT30;65980;44.898;8.602;2023-02-26T20:43:34;4.16;77.94
77052;SHT30;65980;44.898;8.602;2023-02-26T20:46:38;4.18;77.25
77052;SHT30;65980;44.898;8.602;2023-02-26T20:49:42;4.20;77.31
77052;SHT30;65980;44.898;8.602;2023-02-26T20:52:46;4.30;76.18
77052;SHT30;65980;44.898;8.602;2023-02-26T20:55:51;4.21;76.00
77052;SHT30;65980;44.898;8.602;2023-02-26T20:58:54;4.34;75.40
77052;SHT30;65980;44.898;8.602;2023-02-26T21:01:59;4.51;74.88
77052;SHT30;65980;44.898;8.602;2023-02-26T21:05:03;4.48;74.18
77052;SHT30;65980;44.898;8.602;2023-02-26T21:08:08;4.41;74.25
77052;SHT30;65980;44.898;8.602;2023-02-26T21:11:14;4.48;73.25
77052;SHT30;65980;44.898;8.602;2023-02-26T21:14:18;4.54;73.18
77052;SHT30;65980;44.898;8.602;2023-02-26T21:17:23;4.52;73.48
77052;SHT30;65980;44.898;8.602;2023-02-26T21:20:27;4.52;73.20
77052;SHT30;65980;44.898;8.602;2023-02-26T21:23:31;4.47;73.90
77052;SHT30;65980;44.898;8.602;2023-02-26T21:26:35;4.48;74.99
77052;SHT30;65980;44.898;8.602;2023-02-26T21:29:39;4.58;74.96
77052;SHT30;65980;44.898;8.602;2023-02-26T21:32:43;4.57;75.86
77052;SHT30;65980;44.898;8.602;2023-02-26T21:35:48;4.45;76.55
77052;SHT30;65980;44.898;8.602;2023-02-26T21:38:52;4.54;76.44
77052;SHT30;65980;44.898;8.602;2023-02-26T21:41:57;4.36;77.12
77052;SHT30;65980;44.898;8.602;2023-02-26T21:45:03;4.09;78.55
77052;SHT30;65980;44.898;8.602;2023-02-26T21:48:07;4.04;79.13
77052;SHT30;65980;44.898;8.602;2023-02-26T21:51:11;4.33;79.41
77052;SHT30;65980;44.898;8.602;2023-02-26T21:54:15;4.14;79.83
77052;SHT30;65980;44.898;8.602;2023-02-26T21:57:19;3.96;81.42
77052;SHT30;65980;44.898;8.602;2023-02-26T22:00:23;4.25;80.17
77052;SHT30;65980;44.898;8.602;2023-02-26T22:03:28;4.04;81.44
77052;SHT30;65980;44.898;8.602;2023-02-26T22:06:31;3.85;82.63
77052;SHT30;65980;44.898;8.602;2023-02-26T22:09:36;3.99;81.75
77052;SHT30;65980;44.898;8.602;2023-02-26T22:12:40;3.99;81.87
77052;SHT30;65980;44.898;8.602;2023-02-26T22:15:47;3.85;82.30
77052;SHT30;65980;44.898;8.602;2023-02-26T22:18:50;3.78;82.69
77052;SHT30;65980;44.898;8.602;2023-02-26T22:21:54;4.03;82.18
77052;SHT30;65980;44.898;8.602;2023-02-26T22:24:58;3.90;82.51
77052;SHT30;65980;44.898;8.602;2023-02-26T22:28:02;4.03;82.20